Forside
METAR-TAF:

METAR-TAF

Lufthavne :

Rawalpindi, Pakistan

Breddekreds: 33-37N, længdekreds: 073-06E, højde: 507 m

Aktuelle vejr

Denne rapport blev lavet for 2 timer og 10 minutter siden, kl. 00:00 UTC
Vind stille
Temperatur 10°C
Fugtighed 93%
Tryk 1017 hPa
Sigt: 4000 m
Nogle få skyer i en højde af 2000 ft, Optårnet Cumulus.
Overskyet i en højde af 3000 ft
dis

METAR: OPRN 210000Z 00000KT 4000 BR BKN010ST FEW020TCU OVC030 10/09 Q1017 TEMPO 3000 RA RMK A3004

Tid: 07:10 (02:10 UTC)

Vejrudsigter

Foreløbig gælder fra 20 på 18 UTC til 21 på 24 UTC
Vind 12 kt fra vest
Sigt: 5000 m
Brudte skyer i en højde af 2000 ft
Overskyet i en højde af 7000 ft
regn
ændring
fra 21 på 07 UTC til 21 på 08 UTC
Sigt: 7000 m
Spredte skyer i en højde af 4000 ft
Brudte skyer i en højde af 8000 ft

TAF: OPRN 2018/2124 27012KT 5000 RA BKN020 OVC070 BECMG 2107/2108 7000 SCT040 BKN080

Vejrobservationer og prognoser fra mere end 4000 lufthavne (METAR og TAF).

De gule og røde prikker repræsenterer de meteorologiske stationer.

Flyt musen over at se navnet på stationen.

Så klik over at se vejr observationer og prognoser.

At skifte det kort: Klik på de grønne knapper med et sort kors for at zoome ind; på den grønne knap med en bindestreg for at zoome ud; eller på de grønne pile for tilstødende kort.


METAR-TAF: